createdAt,value
2018-10-16T00:01:37.980Z,16.33
2018-10-16T00:04:05.391Z,15.47
2018-10-16T00:06:32.831Z,16.00
2018-10-16T00:09:00.272Z,16.50
2018-10-16T00:11:27.678Z,16.53
2018-10-16T00:13:55.078Z,15.30
2018-10-16T00:16:22.515Z,15.37
2018-10-16T00:18:49.955Z,15.53
2018-10-16T00:21:17.394Z,16.47
2018-10-16T00:23:44.811Z,15.53
2018-10-16T00:26:12.286Z,15.70
2018-10-16T00:28:39.764Z,15.60
2018-10-16T00:31:07.172Z,16.70
2018-10-16T00:33:34.597Z,16.67
2018-10-16T00:36:02.045Z,17.23
2018-10-16T00:38:29.510Z,17.83
2018-10-16T00:40:56.931Z,18.30
2018-10-16T00:43:24.340Z,19.67
2018-10-16T00:45:51.817Z,17.83
2018-10-16T00:48:19.192Z,17.27
2018-10-16T00:50:46.604Z,17.37
2018-10-16T00:53:14.051Z,17.77
2018-10-16T00:55:41.456Z,17.97
2018-10-16T00:58:08.863Z,18.03
2018-10-16T01:00:36.311Z,18.87
2018-10-16T01:03:03.721Z,18.90
2018-10-16T01:05:31.162Z,18.17
2018-10-16T01:07:58.567Z,17.93
2018-10-16T01:10:26.008Z,17.53
2018-10-16T01:12:53.450Z,17.50
2018-10-16T01:15:20.849Z,18.10
2018-10-16T01:17:48.260Z,17.67
2018-10-16T01:20:15.718Z,17.70
2018-10-16T01:22:43.130Z,18.47
2018-10-16T01:25:10.542Z,19.37
2018-10-16T01:27:37.982Z,19.93
2018-10-16T01:30:05.392Z,17.37
2018-10-16T01:32:32.839Z,19.03
2018-10-16T01:35:00.269Z,19.50
2018-10-16T01:37:27.710Z,19.43
2018-10-16T01:39:55.145Z,19.40
2018-10-16T01:42:22.571Z,19.83
2018-10-16T01:44:50.021Z,20.53
2018-10-16T01:47:17.435Z,19.33
2018-10-16T01:49:44.865Z,18.77
2018-10-16T01:52:12.294Z,19.73
2018-10-16T01:54:39.721Z,21.77
2018-10-16T01:57:07.130Z,20.87
2018-10-16T01:59:34.561Z,21.50
2018-10-16T02:02:01.968Z,20.40
2018-10-16T02:04:29.376Z,21.33
2018-10-16T02:06:56.830Z,22.67
2018-10-16T02:09:24.258Z,21.17
2018-10-16T02:11:51.667Z,21.03
2018-10-16T02:14:19.102Z,21.53
2018-10-16T02:16:46.562Z,23.03
2018-10-16T02:19:13.979Z,21.27
2018-10-16T02:21:41.390Z,20.67
2018-10-16T02:24:08.838Z,21.70
2018-10-16T02:26:36.239Z,20.80
2018-10-16T02:29:03.678Z,20.10
2018-10-16T02:31:31.090Z,19.50
2018-10-16T02:33:58.512Z,20.53
2018-10-16T02:36:25.934Z,20.13
2018-10-16T02:38:53.394Z,19.73
2018-10-16T02:41:20.776Z,19.60
2018-10-16T02:43:48.177Z,20.23
2018-10-16T02:46:15.632Z,19.70
2018-10-16T02:48:43.043Z,19.23
2018-10-16T02:51:10.511Z,21.47
2018-10-16T02:53:37.921Z,21.27
2018-10-16T02:56:05.327Z,19.60
2018-10-16T02:58:32.789Z,19.33
2018-10-16T03:01:00.250Z,18.80
2018-10-16T03:03:27.680Z,19.67
2018-10-16T03:05:55.091Z,19.37
2018-10-16T03:08:22.537Z,18.23
2018-10-16T03:10:49.954Z,21.20
2018-10-16T03:13:17.388Z,21.20
2018-10-16T03:15:44.792Z,18.37
2018-10-16T03:18:12.226Z,20.30
2018-10-16T03:20:39.747Z,20.07
2018-10-16T03:23:07.081Z,20.07
2018-10-16T03:25:34.491Z,19.33
2018-10-16T03:28:01.926Z,19.80
2018-10-16T03:30:29.326Z,20.03
2018-10-16T03:32:56.767Z,20.40
2018-10-16T03:35:24.207Z,20.13
2018-10-16T03:37:51.653Z,20.37
2018-10-16T03:40:19.084Z,20.70
2018-10-16T03:42:46.530Z,20.50
2018-10-16T03:45:13.962Z,20.50
2018-10-16T03:47:41.399Z,20.17
2018-10-16T03:50:08.811Z,23.17
2018-10-16T03:52:36.262Z,21.10
2018-10-16T03:55:03.673Z,21.03
2018-10-16T03:57:31.097Z,19.60
2018-10-16T03:59:58.548Z,20.20
2018-10-16T04:02:25.966Z,20.10
2018-10-16T04:04:53.427Z,20.53
2018-10-16T04:07:20.865Z,20.60
2018-10-16T04:09:48.279Z,20.47
2018-10-16T04:12:15.712Z,20.63
2018-10-16T04:14:43.146Z,19.87
2018-10-16T04:17:10.558Z,21.83
2018-10-16T04:19:38.038Z,20.23
2018-10-16T04:22:05.463Z,20.60
2018-10-16T04:24:32.914Z,20.23
2018-10-16T04:27:00.366Z,20.87
2018-10-16T04:29:27.764Z,19.93
2018-10-16T04:31:55.213Z,20.03
2018-10-16T04:34:22.647Z,21.33
2018-10-16T04:36:50.226Z,20.30
2018-10-16T04:39:17.652Z,21.30
2018-10-16T04:41:45.169Z,20.67
2018-10-16T04:44:12.544Z,20.17
2018-10-16T04:46:39.949Z,20.83
2018-10-16T04:49:07.397Z,20.90
2018-10-16T04:51:34.818Z,21.87
2018-10-16T04:54:02.259Z,20.57
2018-10-16T04:56:29.679Z,20.70
2018-10-16T04:58:57.120Z,21.90
2018-10-16T05:01:24.554Z,21.67
2018-10-16T05:03:51.990Z,20.33
2018-10-16T05:06:19.443Z,20.60
2018-10-16T05:08:46.868Z,20.83
2018-10-16T05:11:14.301Z,21.53
2018-10-16T05:13:41.744Z,20.20
2018-10-16T05:16:09.223Z,19.20
2018-10-16T05:18:36.655Z,21.73
2018-10-16T05:21:04.080Z,21.57
2018-10-16T05:23:31.554Z,19.40
2018-10-16T05:25:58.944Z,19.43
2018-10-16T05:28:26.362Z,18.83
2018-10-16T05:30:53.869Z,18.87
2018-10-16T05:33:21.250Z,19.33
2018-10-16T05:35:48.664Z,20.03
2018-10-16T05:38:16.080Z,19.63
2018-10-16T05:40:43.497Z,19.30
2018-10-16T05:43:10.941Z,19.47
2018-10-16T05:45:39.225Z,20.30
2018-10-16T05:48:06.640Z,20.23
2018-10-16T05:50:34.091Z,19.50
2018-10-16T05:53:01.485Z,18.63
2018-10-16T05:55:28.916Z,20.00
2018-10-16T05:57:56.320Z,20.97
2018-10-16T06:00:29.556Z,22.60
2018-10-16T06:02:56.973Z,20.97
2018-10-16T06:05:24.489Z,22.83
2018-10-16T06:07:51.841Z,22.30
2018-10-16T06:10:19.262Z,20.83
2018-10-16T06:12:46.694Z,22.90
2018-10-16T06:15:14.108Z,23.17
2018-10-16T06:17:41.549Z,22.83
2018-10-16T06:20:08.951Z,20.90
2018-10-16T06:22:36.387Z,22.90
2018-10-16T06:25:03.799Z,21.00
2018-10-16T06:27:31.336Z,20.03
2018-10-16T06:29:58.716Z,19.87
2018-10-16T06:32:26.154Z,19.80
2018-10-16T06:34:53.577Z,18.47
2018-10-16T06:37:21.033Z,18.50
2018-10-16T06:39:48.605Z,18.83
2018-10-16T06:42:16.031Z,18.13
2018-10-16T06:44:43.444Z,17.50
2018-10-16T06:47:10.898Z,19.00
2018-10-16T06:49:41.239Z,20.97
2018-10-16T06:52:08.674Z,20.43
2018-10-16T06:54:36.105Z,19.63
2018-10-16T06:57:03.507Z,21.23
2018-10-16T06:59:30.962Z,22.30
2018-10-16T07:01:59.248Z,20.00
2018-10-16T07:04:26.684Z,20.93
2018-10-16T07:06:54.139Z,19.43
2018-10-16T07:09:21.547Z,19.83
2018-10-16T07:11:48.963Z,20.37
2018-10-16T07:14:16.407Z,20.97
2018-10-16T07:16:43.836Z,21.13
2018-10-16T07:19:11.265Z,20.60
2018-10-16T07:21:38.808Z,19.67
2018-10-16T07:24:06.251Z,20.17
2018-10-16T07:26:33.606Z,21.40
2018-10-16T07:29:01.044Z,20.37
2018-10-16T07:31:28.459Z,21.37
2018-10-16T07:33:55.887Z,23.60
2018-10-16T07:36:23.314Z,22.63
2018-10-16T07:38:50.821Z,21.73
2018-10-16T07:41:18.175Z,23.30
2018-10-16T07:43:45.624Z,21.40
2018-10-16T07:46:13.053Z,23.87
2018-10-16T07:51:07.909Z,23.83
2018-10-16T07:53:35.319Z,24.67
2018-10-16T07:56:02.751Z,24.13
2018-10-16T07:58:30.194Z,24.00
2018-10-16T08:00:57.606Z,22.80
2018-10-16T08:03:25.061Z,21.83
2018-10-16T08:05:52.467Z,22.27
2018-10-16T08:08:19.887Z,21.53
2018-10-16T08:10:47.344Z,22.63
2018-10-16T08:13:14.774Z,22.43
2018-10-16T08:15:42.193Z,22.10
2018-10-16T08:18:09.640Z,22.30
2018-10-16T08:20:37.060Z,20.37
2018-10-16T08:23:04.492Z,21.60
2018-10-16T08:25:31.934Z,23.07
2018-10-16T08:27:59.373Z,21.90
2018-10-16T08:30:26.840Z,20.93
2018-10-16T08:32:54.215Z,20.63
2018-10-16T08:35:21.635Z,19.57
2018-10-16T08:37:49.048Z,22.27
2018-10-16T08:40:16.490Z,20.73
2018-10-16T08:42:43.916Z,20.10
2018-10-16T08:45:30.174Z,19.53
2018-10-16T08:48:18.887Z,15.50
2018-10-16T08:51:07.730Z,16.17
2018-10-16T08:53:35.150Z,16.03
2018-10-16T08:56:02.557Z,16.77
2018-10-16T08:58:29.996Z,17.40
2018-10-16T09:00:57.422Z,17.43
2018-10-16T09:03:24.844Z,14.60
2018-10-16T09:05:52.298Z,13.33
2018-10-16T09:08:19.741Z,13.90
2018-10-16T09:10:47.151Z,13.90
2018-10-16T09:13:14.651Z,14.30
2018-10-16T09:15:42.010Z,14.07
2018-10-16T09:18:09.478Z,14.70
2018-10-16T09:20:36.894Z,14.50
2018-10-16T09:23:04.333Z,15.83
2018-10-16T09:25:31.747Z,14.63
2018-10-16T09:27:59.159Z,15.10
2018-10-16T09:30:26.594Z,13.80
2018-10-16T09:32:54.007Z,14.60
2018-10-16T09:35:21.449Z,13.37
2018-10-16T09:37:48.950Z,13.17
2018-10-16T09:40:16.261Z,15.50
2018-10-16T09:42:43.678Z,14.50
2018-10-16T09:45:11.084Z,13.37
2018-10-16T09:47:38.542Z,13.77
2018-10-16T09:50:05.965Z,12.00
2018-10-16T09:52:33.375Z,11.67
2018-10-16T09:55:00.778Z,12.27
2018-10-16T09:57:28.198Z,13.53
2018-10-16T09:59:55.616Z,14.20
2018-10-16T10:02:23.050Z,14.27
2018-10-16T10:04:50.469Z,14.23
2018-10-16T10:07:17.909Z,14.00
2018-10-16T10:09:45.345Z,13.23
2018-10-16T10:12:12.762Z,12.93
2018-10-16T10:14:40.183Z,12.83
2018-10-16T10:17:07.624Z,13.10
2018-10-16T10:19:35.048Z,14.10
2018-10-16T10:22:02.456Z,14.63
2018-10-16T10:24:29.897Z,13.47
2018-10-16T10:26:57.326Z,14.43
2018-10-16T10:29:24.764Z,14.07
2018-10-16T10:31:52.188Z,14.37
2018-10-16T10:34:19.616Z,15.23
2018-10-16T10:36:47.022Z,15.07
2018-10-16T10:39:14.454Z,14.20
2018-10-16T10:41:44.541Z,15.23
2018-10-16T10:44:11.971Z,14.30
2018-10-16T10:46:39.405Z,15.07
2018-10-16T10:49:06.823Z,15.00
2018-10-16T10:51:34.538Z,13.70
2018-10-16T10:54:01.661Z,12.80
2018-10-16T10:56:29.125Z,13.00
2018-10-16T10:58:56.492Z,11.20
2018-10-16T11:01:23.947Z,11.57
2018-10-16T11:03:51.363Z,11.77
2018-10-16T11:06:18.775Z,11.40
2018-10-16T11:08:46.188Z,10.17
2018-10-16T11:11:13.632Z,10.10
2018-10-16T11:13:41.121Z,11.00
2018-10-16T11:16:08.547Z,16.00
2018-10-16T11:18:35.988Z,11.23
2018-10-16T11:21:03.503Z,10.80
2018-10-16T11:23:30.865Z,11.43
2018-10-16T11:25:58.302Z,10.83
2018-10-16T11:28:25.725Z,9.63
2018-10-16T11:30:53.191Z,9.67
2018-10-16T11:33:20.625Z,10.47
2018-10-16T11:35:48.018Z,9.50
2018-10-16T11:38:15.448Z,9.03
2018-10-16T11:40:42.868Z,8.33
2018-10-16T11:43:10.313Z,9.30
2018-10-16T11:45:37.789Z,8.07
2018-10-16T11:48:05.184Z,9.40
2018-10-16T11:50:32.586Z,8.90
2018-10-16T11:52:59.992Z,9.50
2018-10-16T11:55:27.408Z,9.17
2018-10-16T11:57:54.846Z,9.30
2018-10-16T12:00:22.280Z,8.90
2018-10-16T12:02:49.680Z,8.67
2018-10-16T12:05:17.109Z,7.90
2018-10-16T12:07:44.509Z,7.70
2018-10-16T12:10:11.916Z,8.27
2018-10-16T12:12:39.317Z,7.40
2018-10-16T12:15:06.750Z,6.87
2018-10-16T12:17:34.148Z,7.20
2018-10-16T12:20:01.629Z,7.60
2018-10-16T12:22:29.005Z,7.30
2018-10-16T12:24:56.487Z,7.97
2018-10-16T12:27:23.848Z,6.93
2018-10-16T12:29:51.269Z,7.67
2018-10-16T12:32:18.720Z,7.10
2018-10-16T12:34:46.070Z,8.00
2018-10-16T12:37:13.611Z,7.03
2018-10-16T12:39:41.030Z,6.87
2018-10-16T12:42:08.459Z,7.20
2018-10-16T12:44:35.823Z,6.77
2018-10-16T12:47:03.286Z,6.53
2018-10-16T12:49:30.642Z,6.80
2018-10-16T12:51:58.060Z,7.40
2018-10-16T12:54:25.453Z,6.40
2018-10-16T12:56:55.585Z,7.27
2018-10-16T12:59:22.894Z,7.00
2018-10-16T13:01:50.306Z,6.00
2018-10-16T13:04:17.707Z,6.17
2018-10-16T13:06:45.120Z,7.83
2018-10-16T13:09:12.595Z,6.90
2018-10-16T13:11:39.929Z,7.13
2018-10-16T13:14:07.395Z,6.90
2018-10-16T13:16:34.786Z,6.47
2018-10-16T13:19:02.173Z,6.63
2018-10-16T13:21:29.573Z,6.20
2018-10-16T13:23:57.034Z,6.63
2018-10-16T13:26:24.410Z,6.43
2018-10-16T13:28:51.840Z,6.23
2018-10-16T13:31:19.244Z,6.60
2018-10-16T13:33:46.616Z,6.30
2018-10-16T13:36:14.042Z,5.93
2018-10-16T13:38:41.444Z,6.27
2018-10-16T13:41:08.853Z,6.20
2018-10-16T13:43:36.243Z,5.67
2018-10-16T13:46:03.727Z,5.90
2018-10-16T13:48:31.081Z,6.57
2018-10-16T13:50:58.499Z,5.53
2018-10-16T13:53:25.903Z,5.70
2018-10-16T13:55:53.342Z,6.23
2018-10-16T13:58:20.733Z,5.77
2018-10-16T14:00:48.126Z,5.73
2018-10-16T14:03:15.558Z,5.40
2018-10-16T14:05:42.947Z,6.50
2018-10-16T14:08:10.421Z,5.50
2018-10-16T14:10:37.783Z,6.00
2018-10-16T14:13:05.177Z,6.10
2018-10-16T14:15:32.605Z,5.77
2018-10-16T14:17:59.999Z,6.00
2018-10-16T14:20:27.429Z,6.03
2018-10-16T14:22:54.841Z,5.70
2018-10-16T14:25:22.270Z,5.93
2018-10-16T14:27:49.679Z,6.30
2018-10-16T14:30:17.112Z,5.77
2018-10-16T14:32:44.516Z,6.10
2018-10-16T14:35:11.978Z,6.17
2018-10-16T14:37:39.338Z,5.73
2018-10-16T14:40:06.783Z,5.83
2018-10-16T14:42:34.186Z,5.57
2018-10-16T14:45:01.622Z,6.00
2018-10-16T14:47:29.043Z,5.87
2018-10-16T14:49:56.482Z,5.70
2018-10-16T14:52:23.908Z,6.10
2018-10-16T14:54:51.297Z,6.07
2018-10-16T14:57:18.736Z,6.27
2018-10-16T14:59:46.161Z,6.37
2018-10-16T15:02:13.660Z,5.60
2018-10-16T15:04:41.013Z,6.00
2018-10-16T15:07:08.402Z,5.65
2018-10-16T15:09:35.851Z,5.90
2018-10-16T15:12:03.236Z,5.73
2018-10-16T15:14:30.656Z,7.00
2018-10-16T15:16:58.086Z,6.63
2018-10-16T15:19:25.519Z,6.43
2018-10-16T15:21:52.929Z,6.17
2018-10-16T15:24:20.343Z,5.77
2018-10-16T15:26:47.737Z,5.67
2018-10-16T15:29:15.157Z,5.97
2018-10-16T15:31:42.591Z,6.23
2018-10-16T15:34:10.051Z,5.73
2018-10-16T15:36:37.462Z,6.00
2018-10-16T15:39:04.861Z,6.07
2018-10-16T15:41:32.312Z,5.17
2018-10-16T15:43:59.753Z,6.10
2018-10-16T15:46:27.139Z,5.80
2018-10-16T15:48:54.579Z,5.57
2018-10-16T15:51:21.961Z,5.60
2018-10-16T15:53:49.357Z,8.27
2018-10-16T15:56:16.793Z,6.77
2018-10-16T15:58:44.195Z,6.03
2018-10-16T16:01:11.605Z,6.20
2018-10-16T16:03:39.025Z,5.90
2018-10-16T16:06:06.437Z,6.43
2018-10-16T16:08:33.904Z,5.90
2018-10-16T16:11:01.287Z,5.97
2018-10-16T16:13:28.703Z,6.33
2018-10-16T16:15:56.144Z,6.90
2018-10-16T16:18:23.581Z,5.97
2018-10-16T16:20:50.938Z,6.40
2018-10-16T16:23:18.335Z,5.97
2018-10-16T16:25:45.772Z,6.80
2018-10-16T16:28:13.218Z,6.47
2018-10-16T16:30:40.585Z,6.83
2018-10-16T16:33:07.974Z,6.47
2018-10-16T16:35:35.399Z,6.67
2018-10-16T16:38:02.882Z,7.00
2018-10-16T16:40:30.274Z,6.93
2018-10-16T16:42:57.688Z,7.17
2018-10-16T16:45:25.168Z,7.60
2018-10-16T16:47:52.584Z,7.57
2018-10-16T16:50:19.966Z,6.83
2018-10-16T16:52:47.386Z,8.33
2018-10-16T16:55:14.986Z,7.67
2018-10-16T16:57:42.387Z,6.87
2018-10-16T17:00:09.783Z,7.03
2018-10-16T17:02:37.229Z,7.20
2018-10-16T17:05:04.608Z,8.43
2018-10-16T17:07:32.033Z,7.70
2018-10-16T17:09:59.490Z,7.37
2018-10-16T17:12:26.849Z,7.90
2018-10-16T17:14:54.269Z,8.03
2018-10-16T17:17:21.693Z,7.70
2018-10-16T17:19:49.104Z,7.80
2018-10-16T17:22:16.533Z,7.90
2018-10-16T17:24:44.042Z,8.67
2018-10-16T17:27:11.382Z,8.10
2018-10-16T17:29:38.812Z,8.97
2018-10-16T17:32:06.239Z,9.73
2018-10-16T17:34:33.652Z,8.73
2018-10-16T17:37:01.140Z,9.37
2018-10-16T17:39:28.519Z,9.30
2018-10-16T17:41:55.915Z,9.80
2018-10-16T17:44:23.390Z,9.33
2018-10-16T17:46:50.783Z,8.87
2018-10-16T17:49:18.214Z,9.10
2018-10-16T17:51:45.933Z,8.67
2018-10-16T17:54:13.318Z,9.30
2018-10-16T17:56:40.751Z,9.47
2018-10-16T17:59:08.180Z,9.63
2018-10-16T18:01:35.594Z,9.47
2018-10-16T18:04:03.032Z,9.73
2018-10-16T18:06:30.418Z,10.20
2018-10-16T18:08:57.867Z,9.90
2018-10-16T18:11:25.230Z,9.60
2018-10-16T18:13:52.651Z,8.43
2018-10-16T18:16:20.071Z,10.10
2018-10-16T18:18:47.480Z,11.13
2018-10-16T18:21:14.981Z,10.93
2018-10-16T18:23:42.371Z,11.40
2018-10-16T18:26:09.812Z,10.47
2018-10-16T18:28:37.223Z,10.10
2018-10-16T18:31:04.659Z,11.07
2018-10-16T18:33:32.101Z,11.40
2018-10-16T18:35:59.515Z,12.50
2018-10-16T18:38:26.942Z,12.37
2018-10-16T18:40:54.393Z,11.53
2018-10-16T18:43:21.827Z,11.23
2018-10-16T18:45:49.237Z,11.57
2018-10-16T18:48:16.689Z,10.80
2018-10-16T18:50:44.083Z,12.17
2018-10-16T18:53:11.520Z,12.17
2018-10-16T18:55:38.937Z,13.40
2018-10-16T18:58:06.365Z,11.20
2018-10-16T19:00:33.785Z,13.03
2018-10-16T19:03:01.279Z,12.77
2018-10-16T19:05:28.686Z,12.70
2018-10-16T19:07:56.169Z,11.80
2018-10-16T19:10:23.555Z,12.53
2018-10-16T19:12:50.988Z,12.10
2018-10-16T19:15:18.500Z,12.23
2018-10-16T19:17:45.982Z,13.40
2018-10-16T19:20:13.464Z,12.30
2018-10-16T19:22:40.886Z,12.57
2018-10-16T19:25:08.371Z,12.93
2018-10-16T19:27:35.808Z,12.80
2018-10-16T19:30:03.228Z,12.80
2018-10-16T19:32:30.655Z,13.10
2018-10-16T19:34:58.078Z,12.97
2018-10-16T19:37:25.524Z,12.33
2018-10-16T19:39:52.979Z,13.47
2018-10-16T19:42:20.420Z,14.00
2018-10-16T19:44:47.848Z,14.03
2018-10-16T19:47:15.276Z,15.07
2018-10-16T19:49:42.713Z,14.30
2018-10-16T19:52:10.158Z,13.83
2018-10-16T19:54:37.577Z,13.53
2018-10-16T19:57:05.113Z,14.50
2018-10-16T19:59:32.523Z,13.93
2018-10-16T20:01:59.960Z,14.93
2018-10-16T20:04:27.359Z,13.97
2018-10-16T20:06:54.792Z,13.93
2018-10-16T20:09:22.214Z,13.30
2018-10-16T20:11:49.658Z,14.70
2018-10-16T20:14:17.127Z,15.60
2018-10-16T20:16:44.498Z,14.77
2018-10-16T20:19:11.918Z,13.10
2018-10-16T20:21:39.344Z,16.37
2018-10-16T20:24:06.750Z,15.60
2018-10-16T20:26:34.189Z,14.67
2018-10-16T20:29:01.593Z,14.50
2018-10-16T20:31:29.041Z,13.67
2018-10-16T20:33:56.453Z,13.87
2018-10-16T20:36:23.919Z,14.87
2018-10-16T20:38:51.297Z,15.90
2018-10-16T20:41:18.710Z,14.47
2018-10-16T20:43:46.138Z,15.63
2018-10-16T20:46:13.553Z,15.07
2018-10-16T20:48:40.990Z,14.50
2018-10-16T20:51:08.392Z,15.53
2018-10-16T20:53:35.851Z,15.70
2018-10-16T20:56:03.313Z,14.93
2018-10-16T20:58:30.812Z,15.87
2018-10-16T21:00:58.255Z,14.03
2018-10-16T21:03:25.632Z,14.70
2018-10-16T21:05:53.215Z,15.97
2018-10-16T21:08:20.471Z,15.27
2018-10-16T21:10:47.913Z,15.33
2018-10-16T21:13:15.433Z,15.03
2018-10-16T21:15:42.751Z,15.37
2018-10-16T21:18:10.199Z,15.53
2018-10-16T21:20:37.606Z,15.87
2018-10-16T21:23:05.072Z,16.50
2018-10-16T21:25:32.448Z,17.30
2018-10-16T21:27:59.881Z,16.63
2018-10-16T21:30:27.316Z,16.47
2018-10-16T21:32:54.741Z,16.37
2018-10-16T21:35:22.153Z,14.00
2018-10-16T21:37:49.614Z,15.87
2018-10-16T21:40:17.112Z,14.60
2018-10-16T21:42:44.482Z,14.57
2018-10-16T21:45:11.982Z,14.87
2018-10-16T21:47:39.373Z,17.40
2018-10-16T21:50:06.808Z,17.20
2018-10-16T21:52:34.213Z,17.53
2018-10-16T21:55:01.670Z,16.73
2018-10-16T21:57:29.058Z,15.30
2018-10-16T21:59:56.465Z,16.67
2018-10-16T22:02:23.922Z,15.07
2018-10-16T22:04:51.339Z,18.23
2018-10-16T22:07:18.736Z,17.10
2018-10-16T22:09:46.156Z,16.70
2018-10-16T22:12:13.594Z,16.80
2018-10-16T22:14:41.051Z,16.17
2018-10-16T22:17:08.500Z,17.33
2018-10-16T22:19:35.916Z,17.63
2018-10-16T22:22:03.335Z,15.53
2018-10-16T22:24:30.763Z,17.63
2018-10-16T22:26:58.157Z,18.23
2018-10-16T22:29:25.655Z,16.50
2018-10-16T22:31:52.975Z,17.43
2018-10-16T22:34:20.385Z,18.83
2018-10-16T22:36:47.782Z,20.67
2018-10-16T22:39:15.201Z,20.43
2018-10-16T22:41:42.600Z,20.40
2018-10-16T22:44:10.025Z,20.83
2018-10-16T22:46:37.429Z,19.37
2018-10-16T22:49:04.884Z,22.43
2018-10-16T22:51:32.254Z,21.10
2018-10-16T22:53:59.657Z,28.73
2018-10-16T22:56:27.094Z,25.27
2018-10-16T22:58:54.516Z,22.80
2018-10-16T23:01:21.997Z,23.47
2018-10-16T23:03:49.399Z,20.47
2018-10-16T23:06:16.826Z,21.97
2018-10-16T23:08:44.224Z,24.73
2018-10-16T23:11:11.682Z,19.13
2018-10-16T23:13:39.030Z,17.47
2018-10-16T23:16:06.452Z,18.53
2018-10-16T23:18:33.864Z,20.73
2018-10-16T23:21:01.299Z,21.10
2018-10-16T23:23:28.846Z,19.10
2018-10-16T23:25:56.214Z,20.90
2018-10-16T23:28:23.667Z,19.97
2018-10-16T23:30:51.113Z,21.30
2018-10-16T23:33:18.439Z,21.70
2018-10-16T23:35:45.863Z,20.60
2018-10-16T23:38:13.271Z,20.00
2018-10-16T23:40:40.706Z,22.20
2018-10-16T23:43:08.208Z,21.77
2018-10-16T23:45:35.595Z,20.23
2018-10-16T23:48:02.967Z,22.17
2018-10-16T23:50:30.366Z,20.63
2018-10-16T23:52:57.775Z,21.60
2018-10-16T23:55:25.170Z,21.63
2018-10-16T23:57:52.562Z,21.80
